createdAt,value
2023-05-23T00:02:15.787Z,17.63
2023-05-23T00:04:43.032Z,17.65
2023-05-23T00:07:10.380Z,18.05
2023-05-23T00:09:37.275Z,19.50
2023-05-23T00:12:04.405Z,18.85
2023-05-23T00:14:33.843Z,19.13
2023-05-23T00:17:01.665Z,19.02
2023-05-23T00:21:58.769Z,21.63
2023-05-23T00:24:25.967Z,18.52
2023-05-23T00:26:52.963Z,22.85
2023-05-23T00:29:19.916Z,24.27
2023-05-23T00:31:47.246Z,19.05
2023-05-23T00:34:18.249Z,20.75
2023-05-23T00:36:47.625Z,16.50
2023-05-23T00:39:19.566Z,20.17
2023-05-23T00:41:51.978Z,19.05
2023-05-23T00:44:21.170Z,20.65
2023-05-23T00:46:53.639Z,22.52
2023-05-23T00:49:21.178Z,17.40
2023-05-23T00:51:49.665Z,18.30
2023-05-23T00:54:23.308Z,23.05
2023-05-23T00:56:50.364Z,21.33
2023-05-23T00:59:17.322Z,19.30
2023-05-23T01:01:46.750Z,22.17
2023-05-23T01:04:14.767Z,18.13
2023-05-23T01:06:41.740Z,20.15
2023-05-23T01:09:09.626Z,23.58
2023-05-23T01:12:08.634Z,22.23
2023-05-23T01:15:01.326Z,21.80
2023-05-23T01:17:37.191Z,24.05
2023-05-23T01:20:12.780Z,25.48
2023-05-23T01:23:00.893Z,22.63
2023-05-23T01:25:47.378Z,23.45
2023-05-23T01:28:21.893Z,23.67
2023-05-23T01:30:52.116Z,25.15
2023-05-23T01:33:21.223Z,21.23
2023-05-23T01:35:48.784Z,22.65
2023-05-23T01:38:15.853Z,24.63
2023-05-23T01:40:42.882Z,26.73
2023-05-23T01:43:10.846Z,23.58
2023-05-23T01:45:37.869Z,22.20
2023-05-23T01:48:06.239Z,21.23
2023-05-23T01:50:33.910Z,24.75
2023-05-23T01:53:01.015Z,21.13
2023-05-23T01:55:28.547Z,22.83
2023-05-23T01:57:57.443Z,23.27
2023-05-23T02:00:25.109Z,23.38
2023-05-23T02:02:52.508Z,22.92
2023-05-23T02:05:19.485Z,26.70
2023-05-23T02:07:46.445Z,21.52
2023-05-23T02:10:13.274Z,22.75
2023-05-23T02:12:40.327Z,27.27
2023-05-23T02:15:07.835Z,20.65
2023-05-23T02:17:34.978Z,21.33
2023-05-23T02:20:02.068Z,19.75
2023-05-23T02:22:29.019Z,20.45
2023-05-23T02:24:55.836Z,21.70
2023-05-23T02:27:22.802Z,22.02
2023-05-23T02:29:49.915Z,21.90
2023-05-23T02:32:16.890Z,25.65
2023-05-23T02:34:46.532Z,24.38
2023-05-23T02:37:16.525Z,23.88
2023-05-23T02:39:43.972Z,28.50
2023-05-23T02:42:10.966Z,26.48
2023-05-23T02:44:37.984Z,28.88
2023-05-23T02:47:05.066Z,25.70
2023-05-23T02:49:33.580Z,27.00
2023-05-23T02:52:00.503Z,34.70
2023-05-23T02:54:27.338Z,32.05
2023-05-23T02:56:55.783Z,29.52
2023-05-23T02:59:23.228Z,33.13
2023-05-23T03:01:50.255Z,35.03
2023-05-23T03:04:18.254Z,32.67
2023-05-23T03:06:45.200Z,38.50
2023-05-23T03:09:12.147Z,36.50
2023-05-23T03:11:40.367Z,40.30
2023-05-23T03:14:07.301Z,43.70
2023-05-23T03:16:34.270Z,40.85
2023-05-23T03:19:01.531Z,42.83
2023-05-23T03:21:28.759Z,35.67
2023-05-23T03:23:55.759Z,33.80
2023-05-23T03:26:22.882Z,34.22
2023-05-23T03:28:51.349Z,30.90
2023-05-23T03:31:19.722Z,24.48
2023-05-23T03:33:46.682Z,24.23
2023-05-23T03:36:13.655Z,26.30
2023-05-23T03:38:42.061Z,23.98
2023-05-23T03:41:09.001Z,20.58
2023-05-23T03:43:35.964Z,22.55
2023-05-23T03:46:02.942Z,22.75
2023-05-23T03:48:30.602Z,21.92
2023-05-23T03:50:57.672Z,16.77
2023-05-23T03:53:25.155Z,21.58
2023-05-23T03:55:53.969Z,20.27
2023-05-23T03:58:21.618Z,21.52
2023-05-23T04:00:54.983Z,19.77
2023-05-23T04:03:22.311Z,19.98
2023-05-23T04:05:50.698Z,22.30
2023-05-23T04:08:21.917Z,19.67
2023-05-23T04:10:50.802Z,19.63
2023-05-23T04:13:18.291Z,21.80
2023-05-23T04:15:45.879Z,22.13
2023-05-23T04:18:15.026Z,18.67
2023-05-23T04:20:42.726Z,19.67
2023-05-23T04:23:11.137Z,23.17
2023-05-23T04:25:41.336Z,20.90
2023-05-23T04:28:17.683Z,21.70
2023-05-23T04:30:45.167Z,17.48
2023-05-23T04:33:13.399Z,21.08
2023-05-23T04:35:41.236Z,22.67
2023-05-23T04:38:10.162Z,24.15
2023-05-23T04:40:37.167Z,22.20
2023-05-23T04:43:16.357Z,22.67
2023-05-23T04:45:55.996Z,22.40
2023-05-23T04:48:44.765Z,20.85
2023-05-23T04:51:12.063Z,25.13
2023-05-23T04:53:45.670Z,16.75
2023-05-23T04:56:12.631Z,22.60
2023-05-23T04:58:41.990Z,24.98
2023-05-23T05:01:11.675Z,21.38
2023-05-23T05:03:38.803Z,22.30
2023-05-23T05:06:06.193Z,21.83
2023-05-23T05:08:33.222Z,20.95
2023-05-23T05:11:00.499Z,20.70
2023-05-23T05:13:27.393Z,22.02
2023-05-23T05:15:56.070Z,18.80
2023-05-23T05:18:26.960Z,19.73
2023-05-23T05:20:55.987Z,16.25
2023-05-23T05:23:25.975Z,15.80
2023-05-23T05:25:52.937Z,13.75
2023-05-23T05:28:21.824Z,14.90
2023-05-23T05:30:54.257Z,12.27
2023-05-23T05:33:26.026Z,16.42
2023-05-23T05:36:03.878Z,11.88
2023-05-23T05:38:31.124Z,16.35
2023-05-23T05:40:58.272Z,15.02
2023-05-23T05:43:27.879Z,14.23
2023-05-23T05:45:54.833Z,12.65
2023-05-23T05:48:23.020Z,14.25
2023-05-23T05:50:51.596Z,12.90
2023-05-23T05:53:18.544Z,18.38
2023-05-23T05:55:45.337Z,12.65
2023-05-23T05:58:12.605Z,13.23
2023-05-23T06:01:08.409Z,11.88
2023-05-23T06:03:35.666Z,11.75
2023-05-23T06:06:02.696Z,14.52
2023-05-23T06:08:30.120Z,13.68
2023-05-23T06:10:57.082Z,13.13
2023-05-23T06:13:25.816Z,13.23
2023-05-23T06:15:54.129Z,11.18
2023-05-23T06:18:21.811Z,14.88
2023-05-23T06:20:50.739Z,13.23
2023-05-23T06:23:18.966Z,14.40
2023-05-23T06:25:46.981Z,13.95
2023-05-23T06:28:13.898Z,13.73
2023-05-23T06:30:41.257Z,13.43
2023-05-23T06:33:08.768Z,11.48
2023-05-23T06:35:35.869Z,13.35
2023-05-23T06:38:03.194Z,12.95
2023-05-23T06:40:30.111Z,13.30
2023-05-23T06:42:57.215Z,12.10
2023-05-23T06:45:40.690Z,12.57
2023-05-23T06:50:40.984Z,11.63
2023-05-23T06:53:09.170Z,15.07
2023-05-23T06:55:36.070Z,12.02
2023-05-23T06:58:04.337Z,14.68
2023-05-23T07:00:31.999Z,15.48
2023-05-23T07:03:12.915Z,13.02
2023-05-23T07:05:41.435Z,14.05
2023-05-23T07:08:11.325Z,18.27
2023-05-23T07:10:41.960Z,17.05
2023-05-23T07:13:23.362Z,14.57
2023-05-23T07:15:50.193Z,12.40
2023-05-23T07:18:19.957Z,14.80
2023-05-23T07:20:46.969Z,11.45
2023-05-23T07:23:17.262Z,11.60
2023-05-23T07:25:57.940Z,13.23
2023-05-23T07:28:34.575Z,14.75
2023-05-23T07:31:01.809Z,13.73
2023-05-23T07:33:29.899Z,10.82
2023-05-23T07:36:01.473Z,14.77
2023-05-23T07:38:28.362Z,12.20
2023-05-23T07:41:09.906Z,10.52
2023-05-23T07:43:38.768Z,11.23
2023-05-23T07:46:06.151Z,12.52
2023-05-23T07:48:33.575Z,13.85
2023-05-23T07:51:01.062Z,17.52
2023-05-23T07:53:29.031Z,13.50
2023-05-23T07:55:56.623Z,13.25
2023-05-23T07:58:26.435Z,12.00
2023-05-23T08:00:53.622Z,11.98
2023-05-23T08:03:46.336Z,12.60
2023-05-23T08:06:20.054Z,13.20
2023-05-23T08:08:47.037Z,16.65
2023-05-23T08:11:15.523Z,15.50
2023-05-23T08:13:46.584Z,12.48
2023-05-23T08:16:37.690Z,18.92
2023-05-23T08:19:09.247Z,14.13
2023-05-23T08:21:36.420Z,17.77
2023-05-23T08:24:03.570Z,18.95
2023-05-23T08:26:34.824Z,13.43
2023-05-23T08:29:03.864Z,15.48
2023-05-23T08:31:33.277Z,13.63
2023-05-23T08:34:01.696Z,17.33
2023-05-23T08:36:29.698Z,19.52
2023-05-23T08:38:56.605Z,15.93
2023-05-23T08:41:30.840Z,14.07
2023-05-23T08:44:04.453Z,15.57
2023-05-23T08:46:44.975Z,16.27
2023-05-23T08:49:18.159Z,15.02
2023-05-23T08:51:47.036Z,15.35
2023-05-23T08:54:22.164Z,14.05
2023-05-23T08:56:49.250Z,14.23
2023-05-23T08:59:17.048Z,17.38
2023-05-23T09:01:46.419Z,19.60
2023-05-23T09:04:15.145Z,13.23
2023-05-23T09:07:04.004Z,13.13
2023-05-23T09:09:34.203Z,13.00
2023-05-23T09:12:03.417Z,13.77
2023-05-23T09:14:32.523Z,12.18
2023-05-23T09:17:05.090Z,12.23
2023-05-23T09:19:33.493Z,14.73
2023-05-23T09:22:13.768Z,12.15
2023-05-23T09:24:55.522Z,11.15
2023-05-23T09:27:22.865Z,15.25
2023-05-23T09:29:50.744Z,11.40
2023-05-23T09:32:21.213Z,13.85
2023-05-23T09:34:59.570Z,10.48
2023-05-23T09:37:37.827Z,10.27
2023-05-23T09:40:16.390Z,10.40
2023-05-23T09:42:51.278Z,17.45
2023-05-23T09:45:18.268Z,10.20
2023-05-23T09:47:54.804Z,10.60
2023-05-23T09:50:22.413Z,12.27
2023-05-23T09:52:49.430Z,11.00
2023-05-23T09:55:16.987Z,12.38
2023-05-23T09:57:45.371Z,12.15
2023-05-23T10:00:13.750Z,9.32
2023-05-23T10:02:59.165Z,12.70
2023-05-23T10:05:37.408Z,8.35
2023-05-23T10:08:31.683Z,12.27
2023-05-23T10:10:58.517Z,9.90
2023-05-23T10:13:29.259Z,8.82
2023-05-23T10:16:03.175Z,8.75
2023-05-23T10:18:34.364Z,9.52
2023-05-23T10:21:09.530Z,7.72
2023-05-23T10:23:37.930Z,9.27
2023-05-23T10:26:05.457Z,8.35
2023-05-23T10:28:33.471Z,7.03
2023-05-23T10:31:00.573Z,8.52
2023-05-23T10:33:34.747Z,9.93
2023-05-23T10:36:12.234Z,8.73
2023-05-23T10:38:46.637Z,7.95
2023-05-23T10:41:23.809Z,7.22
2023-05-23T10:44:18.269Z,8.30
2023-05-23T10:46:58.075Z,8.43
2023-05-23T10:49:45.580Z,7.18
2023-05-23T10:52:14.652Z,9.10
2023-05-23T10:54:52.985Z,8.40
2023-05-23T10:57:30.336Z,8.60
2023-05-23T10:59:57.499Z,8.63
2023-05-23T11:02:29.082Z,11.45
2023-05-23T11:05:18.654Z,12.38
2023-05-23T11:07:45.707Z,11.20
2023-05-23T11:10:16.766Z,9.70
2023-05-23T11:12:44.810Z,12.15
2023-05-23T11:15:17.708Z,10.15
2023-05-23T11:17:56.683Z,9.93
2023-05-23T11:20:28.487Z,10.23
2023-05-23T11:23:02.960Z,13.07
2023-05-23T11:25:49.313Z,13.23
2023-05-23T11:28:17.425Z,14.05
2023-05-23T11:30:47.463Z,9.57
2023-05-23T11:33:16.329Z,9.00
2023-05-23T11:35:45.425Z,9.32
2023-05-23T11:38:15.075Z,10.23
2023-05-23T11:40:44.088Z,8.95
2023-05-23T11:43:16.812Z,8.73
2023-05-23T11:45:44.148Z,9.30
2023-05-23T11:48:13.047Z,10.48
2023-05-23T11:50:47.552Z,8.07
2023-05-23T11:53:18.523Z,7.18
2023-05-23T11:58:27.402Z,7.70
2023-05-23T12:01:00.713Z,8.77
2023-05-23T12:03:27.845Z,9.20
2023-05-23T12:05:55.987Z,6.90
2023-05-23T12:08:23.093Z,6.25
2023-05-23T12:10:59.905Z,5.75
2023-05-23T12:13:29.701Z,5.47
2023-05-23T12:15:58.632Z,6.57
2023-05-23T12:18:29.866Z,5.28
2023-05-23T12:23:28.490Z,5.47
2023-05-23T12:25:56.769Z,6.15
2023-05-23T12:28:47.633Z,5.53
2023-05-23T12:31:18.200Z,5.97
2023-05-23T12:33:47.885Z,5.28
2023-05-23T12:36:21.780Z,6.45
2023-05-23T12:38:49.183Z,8.50
2023-05-23T12:41:19.597Z,8.27
2023-05-23T12:43:54.433Z,13.65
2023-05-23T12:46:23.064Z,9.75
2023-05-23T12:48:50.370Z,10.52
2023-05-23T12:51:17.730Z,10.00
2023-05-23T12:53:45.000Z,9.15
2023-05-23T12:56:12.382Z,10.85
2023-05-23T12:58:39.414Z,10.55
2023-05-23T13:01:06.590Z,13.88
2023-05-23T13:03:33.530Z,16.73
2023-05-23T13:06:00.841Z,12.50
2023-05-23T13:08:27.770Z,13.43
2023-05-23T13:10:54.907Z,11.43
2023-05-23T13:13:22.536Z,13.65
2023-05-23T13:15:51.134Z,14.93
2023-05-23T13:18:18.850Z,16.55
2023-05-23T13:20:46.656Z,12.32
2023-05-23T13:23:13.782Z,12.80
2023-05-23T13:25:41.087Z,17.00
2023-05-23T13:28:08.214Z,14.07
2023-05-23T13:30:35.104Z,12.50
2023-05-23T13:33:02.413Z,12.18
2023-05-23T13:35:29.407Z,10.48
2023-05-23T13:37:56.198Z,15.35
2023-05-23T13:40:23.230Z,14.70
2023-05-23T13:42:51.356Z,13.40
2023-05-23T13:45:19.929Z,12.80
2023-05-23T13:47:47.287Z,14.30
2023-05-23T13:50:14.693Z,17.35
2023-05-23T13:52:44.861Z,18.70
2023-05-23T13:55:13.516Z,17.20
2023-05-23T13:57:40.325Z,23.55
2023-05-23T14:00:09.510Z,16.17
2023-05-23T14:02:36.600Z,14.25
2023-05-23T14:05:03.990Z,14.55
2023-05-23T14:07:31.570Z,13.63
2023-05-23T14:09:59.759Z,14.45
2023-05-23T14:12:26.756Z,15.38
2023-05-23T14:14:53.769Z,13.43
2023-05-23T14:17:20.670Z,15.77
2023-05-23T14:19:48.051Z,14.85
2023-05-23T14:22:15.003Z,16.73
2023-05-23T14:24:42.466Z,15.15
2023-05-23T14:27:11.081Z,15.27
2023-05-23T14:29:38.823Z,14.02
2023-05-23T14:32:06.117Z,16.23
2023-05-23T14:34:33.212Z,16.20
2023-05-23T14:37:01.260Z,23.10
2023-05-23T14:39:29.172Z,21.25
2023-05-23T14:41:56.244Z,21.23
2023-05-23T14:44:23.388Z,16.08
2023-05-23T14:46:50.428Z,17.10
2023-05-23T14:49:17.851Z,16.73
2023-05-23T14:51:49.093Z,15.50
2023-05-23T14:54:18.989Z,15.43
2023-05-23T14:56:46.093Z,12.45
2023-05-23T14:59:13.204Z,16.33
2023-05-23T15:01:40.922Z,21.58
2023-05-23T15:04:11.654Z,17.90
2023-05-23T15:06:39.701Z,15.82
2023-05-23T15:09:07.685Z,23.00
2023-05-23T15:11:38.943Z,20.65
2023-05-23T15:14:06.127Z,15.13
2023-05-23T15:16:33.532Z,18.80
2023-05-23T15:19:00.980Z,16.88
2023-05-23T15:21:28.962Z,14.75
2023-05-23T15:23:56.146Z,20.85
2023-05-23T15:26:23.817Z,19.05
2023-05-23T15:28:50.788Z,15.95
2023-05-23T15:31:17.634Z,23.92
2023-05-23T15:33:44.593Z,13.63
2023-05-23T15:36:13.240Z,17.13
2023-05-23T15:38:40.835Z,17.90
2023-05-23T15:41:07.683Z,18.83
2023-05-23T15:43:42.014Z,19.42
2023-05-23T15:46:09.402Z,15.40
2023-05-23T15:48:36.247Z,18.88
2023-05-23T15:51:03.135Z,14.18
2023-05-23T15:53:34.299Z,19.65
2023-05-23T15:56:04.440Z,21.25
2023-05-23T15:58:32.378Z,13.85
2023-05-23T16:01:01.818Z,16.08
2023-05-23T16:03:29.073Z,11.70
2023-05-23T16:05:55.997Z,14.70
2023-05-23T16:08:22.881Z,14.00
2023-05-23T16:10:50.554Z,15.40
2023-05-23T16:13:18.117Z,16.80
2023-05-23T16:15:45.543Z,17.45
2023-05-23T16:18:14.678Z,15.90
2023-05-23T16:20:42.041Z,18.73
2023-05-23T16:23:09.196Z,14.23
2023-05-23T16:25:36.158Z,13.90
2023-05-23T16:28:03.051Z,15.35
2023-05-23T16:30:29.944Z,15.02
2023-05-23T16:32:56.778Z,13.60
2023-05-23T16:35:23.918Z,15.70
2023-05-23T16:37:50.758Z,12.73
2023-05-23T16:40:19.529Z,12.13
2023-05-23T16:42:46.684Z,14.38
2023-05-23T16:45:13.642Z,16.10
2023-05-23T16:47:41.949Z,21.52
2023-05-23T16:50:09.309Z,11.10
2023-05-23T16:52:36.245Z,16.10
2023-05-23T16:55:04.315Z,14.13
2023-05-23T16:57:31.158Z,15.43
2023-05-23T17:00:01.130Z,14.60
2023-05-23T17:02:27.985Z,13.80
2023-05-23T17:04:55.735Z,14.43
2023-05-23T17:07:22.594Z,13.38
2023-05-23T17:09:49.410Z,24.58
2023-05-23T17:12:16.271Z,12.68
2023-05-23T17:14:43.144Z,18.25
2023-05-23T17:17:09.978Z,12.70
2023-05-23T17:19:36.961Z,13.27
2023-05-23T17:22:06.033Z,14.98
2023-05-23T17:24:36.311Z,13.00
2023-05-23T17:27:04.156Z,11.73
2023-05-23T17:29:31.697Z,9.43
2023-05-23T17:31:58.904Z,13.27
2023-05-23T17:34:26.398Z,11.65
2023-05-23T17:36:53.330Z,12.43
2023-05-23T17:39:20.207Z,16.20
2023-05-23T17:41:47.095Z,10.48
2023-05-23T17:44:14.093Z,16.63
2023-05-23T17:46:41.242Z,10.40
2023-05-23T17:49:08.410Z,16.35
2023-05-23T17:51:35.319Z,11.60
2023-05-23T17:54:04.259Z,12.43
2023-05-23T17:56:32.035Z,10.90
2023-05-23T17:58:59.226Z,11.43
2023-05-23T18:04:32.420Z,13.02
2023-05-23T18:06:59.532Z,11.40
2023-05-23T18:09:26.401Z,14.75
2023-05-23T18:11:53.624Z,17.60
2023-05-23T18:14:28.410Z,12.43
2023-05-23T18:16:59.001Z,10.98
2023-05-23T18:19:26.037Z,15.77
2023-05-23T18:21:56.458Z,12.75
2023-05-23T18:24:32.472Z,12.40
2023-05-23T18:26:59.341Z,13.63
2023-05-23T18:29:26.210Z,15.15
2023-05-23T18:31:53.181Z,14.13
2023-05-23T18:34:20.816Z,11.05
2023-05-23T18:36:47.892Z,10.45
2023-05-23T18:39:19.319Z,13.95
2023-05-23T18:41:47.417Z,19.60
2023-05-23T18:44:14.397Z,14.82
2023-05-23T18:46:55.977Z,15.80
2023-05-23T18:49:23.281Z,10.88
2023-05-23T18:51:51.818Z,14.25
2023-05-23T18:54:18.772Z,14.90
2023-05-23T18:56:45.693Z,14.20
2023-05-23T18:59:15.761Z,10.52
2023-05-23T19:01:43.050Z,14.00
2023-05-23T19:04:10.067Z,18.77
2023-05-23T19:06:37.285Z,11.07
2023-05-23T19:09:09.493Z,11.07
2023-05-23T19:11:37.609Z,19.13
2023-05-23T19:14:04.538Z,18.17
2023-05-23T19:16:31.716Z,10.45
2023-05-23T19:19:01.915Z,15.63
2023-05-23T19:21:29.456Z,14.32
2023-05-23T19:23:56.620Z,13.20
2023-05-23T19:26:23.998Z,17.00
2023-05-23T19:28:50.919Z,22.40
2023-05-23T19:31:17.833Z,15.43
2023-05-23T19:33:44.767Z,13.27
2023-05-23T19:36:12.150Z,16.23
2023-05-23T19:38:39.003Z,12.40
2023-05-23T19:41:06.354Z,10.02
2023-05-23T19:43:33.258Z,11.93
2023-05-23T19:46:00.491Z,14.15
2023-05-23T19:48:27.537Z,12.32
2023-05-23T19:50:54.416Z,16.30
2023-05-23T19:53:23.061Z,10.70
2023-05-23T19:55:50.714Z,16.60
2023-05-23T19:58:18.499Z,13.05
2023-05-23T20:00:45.707Z,13.77
2023-05-23T20:03:12.719Z,10.48
2023-05-23T20:05:39.791Z,13.80
2023-05-23T20:08:07.002Z,11.40
2023-05-23T20:10:33.993Z,9.68
2023-05-23T20:13:00.909Z,16.63
2023-05-23T20:15:38.673Z,16.23
2023-05-23T20:18:07.672Z,16.73
2023-05-23T20:20:34.802Z,23.00
2023-05-23T20:23:01.794Z,8.15
2023-05-23T20:25:28.717Z,8.98
2023-05-23T20:27:56.960Z,11.45
2023-05-23T20:30:23.973Z,16.38
2023-05-23T20:32:53.589Z,12.18
2023-05-23T20:35:23.576Z,12.15
2023-05-23T20:37:53.776Z,15.77
2023-05-23T20:40:22.337Z,16.80
2023-05-23T20:42:49.886Z,9.98
2023-05-23T20:45:16.859Z,10.70
2023-05-23T20:47:43.899Z,11.25
2023-05-23T20:50:12.668Z,17.60
2023-05-23T20:52:42.717Z,9.52
2023-05-23T20:55:12.321Z,13.55
2023-05-23T20:57:39.479Z,14.13
2023-05-23T21:00:13.385Z,11.80
2023-05-23T21:02:42.001Z,21.25
2023-05-23T21:05:10.762Z,24.02
2023-05-23T21:07:38.378Z,11.27
2023-05-23T21:10:06.396Z,23.00
2023-05-23T21:12:33.774Z,16.10
2023-05-23T21:15:00.773Z,10.98
2023-05-23T21:17:27.718Z,16.30
2023-05-23T21:19:54.617Z,12.18
2023-05-23T21:22:21.605Z,14.68
2023-05-23T21:24:48.491Z,13.70
2023-05-23T21:27:15.559Z,19.92
2023-05-23T21:29:42.875Z,10.88
2023-05-23T21:32:09.769Z,12.23
2023-05-23T21:34:36.610Z,18.55
2023-05-23T21:37:03.637Z,12.05
2023-05-23T21:39:42.958Z,13.55
2023-05-23T21:42:14.481Z,8.32
2023-05-23T21:44:41.431Z,19.63
2023-05-23T21:47:08.303Z,11.60
2023-05-23T21:49:35.488Z,13.40
2023-05-23T21:52:02.935Z,18.15
2023-05-23T21:54:30.038Z,22.95
2023-05-23T21:56:57.515Z,9.07
2023-05-23T21:59:24.357Z,11.18
2023-05-23T22:01:51.584Z,13.00
2023-05-23T22:04:20.019Z,13.50
2023-05-23T22:06:47.149Z,8.48
2023-05-23T22:09:15.283Z,15.30
2023-05-23T22:11:43.181Z,15.15
2023-05-23T22:14:10.477Z,10.90
2023-05-23T22:16:40.463Z,19.70
2023-05-23T22:19:09.798Z,10.17
2023-05-23T22:21:37.443Z,13.63
2023-05-23T22:24:04.641Z,11.38
2023-05-23T22:26:32.085Z,13.75
2023-05-23T22:28:59.153Z,21.55
2023-05-23T22:31:26.364Z,14.70
2023-05-23T22:33:53.468Z,13.82
2023-05-23T22:36:21.988Z,14.85
2023-05-23T22:38:49.138Z,15.48
2023-05-23T22:41:16.021Z,9.27
2023-05-23T22:43:43.008Z,9.70
2023-05-23T22:46:10.007Z,11.90
2023-05-23T22:48:38.003Z,18.30
2023-05-23T22:51:05.889Z,18.15
2023-05-23T22:53:32.799Z,15.32
2023-05-23T22:55:59.648Z,19.40
2023-05-23T22:58:26.888Z,17.65
2023-05-23T23:00:53.772Z,16.38
2023-05-23T23:03:20.940Z,12.13
2023-05-23T23:05:47.960Z,13.50
2023-05-23T23:08:16.085Z,16.45
2023-05-23T23:10:43.805Z,13.82
2023-05-23T23:13:13.515Z,11.43
2023-05-23T23:15:42.603Z,19.58
2023-05-23T23:18:09.702Z,11.60
2023-05-23T23:20:37.016Z,8.48
2023-05-23T23:23:03.953Z,15.23
2023-05-23T23:25:30.765Z,12.00
2023-05-23T23:27:57.616Z,15.88
2023-05-23T23:30:24.468Z,9.27
2023-05-23T23:32:51.403Z,8.38
2023-05-23T23:35:18.282Z,10.63
2023-05-23T23:37:45.182Z,11.23
2023-05-23T23:40:12.709Z,11.93
2023-05-23T23:42:39.578Z,14.57
2023-05-23T23:45:06.931Z,13.63
2023-05-23T23:47:33.871Z,17.20
2023-05-23T23:50:00.760Z,6.50
2023-05-23T23:52:27.944Z,21.92
2023-05-23T23:54:55.220Z,14.48
2023-05-23T23:57:22.185Z,26.55
2023-05-23T23:59:49.100Z,13.25
